sensor_id;sensor_type;location;lat;lon;timestamp;temperature;humidity
27016;DHT22;14557;0.000;0.000;2024-01-30T00:01:41;22.40;56.90
27016;DHT22;14557;0.000;0.000;2024-01-30T00:04:07;22.30;56.80
27016;DHT22;14557;0.000;0.000;2024-01-30T00:06:32;22.30;57.10
27016;DHT22;14557;0.000;0.000;2024-01-30T00:08:58;22.20;57.30
27016;DHT22;14557;0.000;0.000;2024-01-30T00:11:24;22.20;57.40
27016;DHT22;14557;0.000;0.000;2024-01-30T00:13:54;22.10;57.40
27016;DHT22;14557;0.000;0.000;2024-01-30T00:16:25;22.10;57.40
27016;DHT22;14557;0.000;0.000;2024-01-30T00:18:51;22.10;57.40
27016;DHT22;14557;0.000;0.000;2024-01-30T00:21:18;22.00;57.50
27016;DHT22;14557;0.000;0.000;2024-01-30T00:23:44;22.00;57.40
27016;DHT22;14557;0.000;0.000;2024-01-30T00:26:09;22.00;57.40
27016;DHT22;14557;0.000;0.000;2024-01-30T00:28:39;21.90;57.50
27016;DHT22;14557;0.000;0.000;2024-01-30T00:31:05;21.90;57.50
27016;DHT22;14557;0.000;0.000;2024-01-30T00:33:31;21.90;57.30
27016;DHT22;14557;0.000;0.000;2024-01-30T00:35:57;21.90;57.40
27016;DHT22;14557;0.000;0.000;2024-01-30T00:38:23;21.80;57.30
27016;DHT22;14557;0.000;0.000;2024-01-30T00:40:48;21.80;57.30
27016;DHT22;14557;0.000;0.000;2024-01-30T00:43:15;21.80;57.40
27016;DHT22;14557;0.000;0.000;2024-01-30T00:45:41;21.80;57.30
27016;DHT22;14557;0.000;0.000;2024-01-30T00:48:07;21.80;57.30
27016;DHT22;14557;0.000;0.000;2024-01-30T00:50:33;21.80;57.30
27016;DHT22;14557;0.000;0.000;2024-01-30T00:52:58;21.70;57.30
27016;DHT22;14557;0.000;0.000;2024-01-30T00:55:24;21.70;57.30
27016;DHT22;14557;0.000;0.000;2024-01-30T00:57:50;21.70;57.20
27016;DHT22;14557;0.000;0.000;2024-01-30T01:00:16;21.70;57.20
27016;DHT22;14557;0.000;0.000;2024-01-30T01:02:43;21.70;57.30
27016;DHT22;14557;0.000;0.000;2024-01-30T01:05:09;21.70;57.00
27016;DHT22;14557;0.000;0.000;2024-01-30T01:07:35;21.70;57.40
27016;DHT22;14557;0.000;0.000;2024-01-30T01:10:01;21.60;57.40
27016;DHT22;14557;0.000;0.000;2024-01-30T01:12:28;21.60;57.40
27016;DHT22;14557;0.000;0.000;2024-01-30T01:14:53;21.60;57.30
27016;DHT22;14557;0.000;0.000;2024-01-30T01:17:19;21.60;57.60
27016;DHT22;14557;0.000;0.000;2024-01-30T01:19:45;21.60;57.50
27016;DHT22;14557;0.000;0.000;2024-01-30T01:22:11;21.60;57.30
27016;DHT22;14557;0.000;0.000;2024-01-30T01:24:37;21.60;57.50
27016;DHT22;14557;0.000;0.000;2024-01-30T01:27:03;21.50;57.20
27016;DHT22;14557;0.000;0.000;2024-01-30T01:29:28;21.50;57.40
27016;DHT22;14557;0.000;0.000;2024-01-30T01:32:00;21.50;57.40
27016;DHT22;14557;0.000;0.000;2024-01-30T01:34:26;21.50;57.30
27016;DHT22;14557;0.000;0.000;2024-01-30T01:36:52;21.40;57.50
27016;DHT22;14557;0.000;0.000;2024-01-30T01:39:22;21.40;57.60
27016;DHT22;14557;0.000;0.000;2024-01-30T01:41:48;21.40;57.40
27016;DHT22;14557;0.000;0.000;2024-01-30T01:44:14;21.40;57.40
27016;DHT22;14557;0.000;0.000;2024-01-30T01:46:40;21.40;57.40
27016;DHT22;14557;0.000;0.000;2024-01-30T01:49:07;21.40;57.40
27016;DHT22;14557;0.000;0.000;2024-01-30T01:51:35;21.30;57.40
27016;DHT22;14557;0.000;0.000;2024-01-30T01:54:03;21.30;57.50
27016;DHT22;14557;0.000;0.000;2024-01-30T01:56:30;21.30;57.40
27016;DHT22;14557;0.000;0.000;2024-01-30T01:59:00;21.30;57.40
27016;DHT22;14557;0.000;0.000;2024-01-30T02:01:29;21.30;57.60
27016;DHT22;14557;0.000;0.000;2024-01-30T02:03:56;21.30;57.50
27016;DHT22;14557;0.000;0.000;2024-01-30T02:06:22;21.30;57.50
27016;DHT22;14557;0.000;0.000;2024-01-30T02:08:48;21.20;57.50
27016;DHT22;14557;0.000;0.000;2024-01-30T02:11:14;21.20;57.50
27016;DHT22;14557;0.000;0.000;2024-01-30T02:13:42;21.20;57.60
27016;DHT22;14557;0.000;0.000;2024-01-30T02:16:08;21.20;57.60
27016;DHT22;14557;0.000;0.000;2024-01-30T02:18:33;21.10;57.60
27016;DHT22;14557;0.000;0.000;2024-01-30T02:21:04;21.10;57.70
27016;DHT22;14557;0.000;0.000;2024-01-30T02:23:30;21.10;57.70
27016;DHT22;14557;0.000;0.000;2024-01-30T02:25:58;21.10;57.70
27016;DHT22;14557;0.000;0.000;2024-01-30T02:28:24;21.10;57.80
27016;DHT22;14557;0.000;0.000;2024-01-30T02:30:50;21.10;57.80
27016;DHT22;14557;0.000;0.000;2024-01-30T02:33:16;21.10;57.70
27016;DHT22;14557;0.000;0.000;2024-01-30T02:35:41;21.00;57.80
27016;DHT22;14557;0.000;0.000;2024-01-30T02:38:07;21.00;57.70
27016;DHT22;14557;0.000;0.000;2024-01-30T02:40:33;21.00;57.80
27016;DHT22;14557;0.000;0.000;2024-01-30T02:43:00;21.00;57.90
27016;DHT22;14557;0.000;0.000;2024-01-30T02:45:26;21.00;57.90
27016;DHT22;14557;0.000;0.000;2024-01-30T02:47:52;21.00;57.90
27016;DHT22;14557;0.000;0.000;2024-01-30T02:50:18;20.90;57.90
27016;DHT22;14557;0.000;0.000;2024-01-30T02:52:44;20.90;57.80
27016;DHT22;14557;0.000;0.000;2024-01-30T02:55:10;20.90;57.90
27016;DHT22;14557;0.000;0.000;2024-01-30T02:57:36;20.90;57.90
27016;DHT22;14557;0.000;0.000;2024-01-30T03:00:02;20.90;58.10
27016;DHT22;14557;0.000;0.000;2024-01-30T03:02:29;20.90;57.90
27016;DHT22;14557;0.000;0.000;2024-01-30T03:04:55;20.90;58.10
27016;DHT22;14557;0.000;0.000;2024-01-30T03:07:20;20.90;58.10
27016;DHT22;14557;0.000;0.000;2024-01-30T03:09:46;20.90;58.00
27016;DHT22;14557;0.000;0.000;2024-01-30T03:12:12;20.80;57.70
27016;DHT22;14557;0.000;0.000;2024-01-30T03:14:38;20.80;58.00
27016;DHT22;14557;0.000;0.000;2024-01-30T03:17:03;20.80;58.00
27016;DHT22;14557;0.000;0.000;2024-01-30T03:19:29;20.80;57.70
27016;DHT22;14557;0.000;0.000;2024-01-30T03:21:55;20.80;58.10
27016;DHT22;14557;0.000;0.000;2024-01-30T03:24:20;20.70;57.80
27016;DHT22;14557;0.000;0.000;2024-01-30T03:26:46;20.70;58.00
27016;DHT22;14557;0.000;0.000;2024-01-30T03:29:12;20.70;58.00
27016;DHT22;14557;0.000;0.000;2024-01-30T03:31:39;20.70;58.00
27016;DHT22;14557;0.000;0.000;2024-01-30T03:34:05;20.70;58.20
27016;DHT22;14557;0.000;0.000;2024-01-30T03:36:31;20.70;58.00
27016;DHT22;14557;0.000;0.000;2024-01-30T03:38:59;20.70;58.10
27016;DHT22;14557;0.000;0.000;2024-01-30T03:41:25;20.60;58.50
27016;DHT22;14557;0.000;0.000;2024-01-30T03:43:50;20.60;58.10
27016;DHT22;14557;0.000;0.000;2024-01-30T03:46:16;20.60;58.20
27016;DHT22;14557;0.000;0.000;2024-01-30T03:48:42;20.60;58.10
27016;DHT22;14557;0.000;0.000;2024-01-30T03:51:08;20.60;58.80
27016;DHT22;14557;0.000;0.000;2024-01-30T03:53:34;20.60;58.20
27016;DHT22;14557;0.000;0.000;2024-01-30T03:56:00;20.60;58.10
27016;DHT22;14557;0.000;0.000;2024-01-30T03:58:26;20.60;58.20
27016;DHT22;14557;0.000;0.000;2024-01-30T04:00:52;20.60;58.20
27016;DHT22;14557;0.000;0.000;2024-01-30T04:03:18;20.60;58.20
27016;DHT22;14557;0.000;0.000;2024-01-30T04:05:44;20.60;58.20
27016;DHT22;14557;0.000;0.000;2024-01-30T04:08:10;20.50;58.10
27016;DHT22;14557;0.000;0.000;2024-01-30T04:10:36;20.50;58.30
27016;DHT22;14557;0.000;0.000;2024-01-30T04:13:01;20.50;58.30
27016;DHT22;14557;0.000;0.000;2024-01-30T04:15:27;20.50;58.30
27016;DHT22;14557;0.000;0.000;2024-01-30T04:17:57;20.40;58.30
27016;DHT22;14557;0.000;0.000;2024-01-30T04:20:24;20.50;58.20
27016;DHT22;14557;0.000;0.000;2024-01-30T04:22:50;20.40;58.20
27016;DHT22;14557;0.000;0.000;2024-01-30T04:25:16;20.40;58.10
27016;DHT22;14557;0.000;0.000;2024-01-30T04:27:41;20.40;58.10
27016;DHT22;14557;0.000;0.000;2024-01-30T04:30:07;20.40;58.70
27016;DHT22;14557;0.000;0.000;2024-01-30T04:32:33;20.40;58.10
27016;DHT22;14557;0.000;0.000;2024-01-30T04:34:59;20.40;58.20
27016;DHT22;14557;0.000;0.000;2024-01-30T04:37:25;20.40;58.10
27016;DHT22;14557;0.000;0.000;2024-01-30T04:39:51;20.40;58.10
27016;DHT22;14557;0.000;0.000;2024-01-30T04:42:17;20.30;58.20
27016;DHT22;14557;0.000;0.000;2024-01-30T04:44:43;20.30;58.00
27016;DHT22;14557;0.000;0.000;2024-01-30T04:47:08;20.30;58.10
27016;DHT22;14557;0.000;0.000;2024-01-30T04:49:36;20.30;58.00
27016;DHT22;14557;0.000;0.000;2024-01-30T04:52:02;20.30;58.10
27016;DHT22;14557;0.000;0.000;2024-01-30T04:54:28;20.30;58.10
27016;DHT22;14557;0.000;0.000;2024-01-30T04:56:54;20.30;58.10
27016;DHT22;14557;0.000;0.000;2024-01-30T04:59:19;20.30;58.10
27016;DHT22;14557;0.000;0.000;2024-01-30T05:01:46;20.30;57.90
27016;DHT22;14557;0.000;0.000;2024-01-30T05:04:11;20.30;58.10
27016;DHT22;14557;0.000;0.000;2024-01-30T05:06:37;20.30;58.60
27016;DHT22;14557;0.000;0.000;2024-01-30T05:09:03;20.20;58.00
27016;DHT22;14557;0.000;0.000;2024-01-30T05:11:30;20.20;57.90
27016;DHT22;14557;0.000;0.000;2024-01-30T05:13:56;20.20;58.00
27016;DHT22;14557;0.000;0.000;2024-01-30T05:16:22;20.20;57.90
27016;DHT22;14557;0.000;0.000;2024-01-30T05:18:48;20.20;57.90
27016;DHT22;14557;0.000;0.000;2024-01-30T05:21:14;20.20;57.90
27016;DHT22;14557;0.000;0.000;2024-01-30T05:23:40;20.20;57.90
27016;DHT22;14557;0.000;0.000;2024-01-30T05:26:08;20.10;57.90
27016;DHT22;14557;0.000;0.000;2024-01-30T05:28:33;20.10;57.90
27016;DHT22;14557;0.000;0.000;2024-01-30T05:30:59;20.10;57.80
27016;DHT22;14557;0.000;0.000;2024-01-30T05:33:25;20.10;57.90
27016;DHT22;14557;0.000;0.000;2024-01-30T05:35:50;20.10;57.90
27016;DHT22;14557;0.000;0.000;2024-01-30T05:38:19;20.10;57.80
27016;DHT22;14557;0.000;0.000;2024-01-30T05:40:45;20.00;57.80
27016;DHT22;14557;0.000;0.000;2024-01-30T05:43:12;20.10;57.90
27016;DHT22;14557;0.000;0.000;2024-01-30T05:45:37;20.00;57.90
27016;DHT22;14557;0.000;0.000;2024-01-30T05:48:04;20.00;57.70
27016;DHT22;14557;0.000;0.000;2024-01-30T05:50:30;20.00;57.70
27016;DHT22;14557;0.000;0.000;2024-01-30T05:52:56;20.00;57.80
27016;DHT22;14557;0.000;0.000;2024-01-30T05:55:21;20.00;57.70
27016;DHT22;14557;0.000;0.000;2024-01-30T05:57:47;20.00;57.80
27016;DHT22;14557;0.000;0.000;2024-01-30T06:00:13;20.00;57.70
27016;DHT22;14557;0.000;0.000;2024-01-30T06:02:39;20.00;57.80
27016;DHT22;14557;0.000;0.000;2024-01-30T06:05:05;19.90;57.70
27016;DHT22;14557;0.000;0.000;2024-01-30T06:07:31;19.90;57.70
27016;DHT22;14557;0.000;0.000;2024-01-30T06:09:57;19.90;57.70
27016;DHT22;14557;0.000;0.000;2024-01-30T06:12:22;19.90;57.70
27016;DHT22;14557;0.000;0.000;2024-01-30T06:14:48;19.90;57.70
27016;DHT22;14557;0.000;0.000;2024-01-30T06:17:14;19.90;57.70
27016;DHT22;14557;0.000;0.000;2024-01-30T06:19:40;19.90;57.70
27016;DHT22;14557;0.000;0.000;2024-01-30T06:22:06;19.90;57.80
27016;DHT22;14557;0.000;0.000;2024-01-30T06:24:32;19.90;57.70
27016;DHT22;14557;0.000;0.000;2024-01-30T06:26:59;19.80;57.60
27016;DHT22;14557;0.000;0.000;2024-01-30T06:29:26;19.80;57.60
27016;DHT22;14557;0.000;0.000;2024-01-30T06:31:52;19.80;57.50
27016;DHT22;14557;0.000;0.000;2024-01-30T06:34:18;19.80;57.60
27016;DHT22;14557;0.000;0.000;2024-01-30T06:36:44;19.80;57.50
27016;DHT22;14557;0.000;0.000;2024-01-30T06:39:10;19.80;57.60
27016;DHT22;14557;0.000;0.000;2024-01-30T06:41:36;19.80;57.60
27016;DHT22;14557;0.000;0.000;2024-01-30T06:44:04;19.80;57.60
27016;DHT22;14557;0.000;0.000;2024-01-30T06:46:32;19.80;57.60
27016;DHT22;14557;0.000;0.000;2024-01-30T06:48:58;19.80;58.00
27016;DHT22;14557;0.000;0.000;2024-01-30T06:51:23;19.70;57.40
27016;DHT22;14557;0.000;0.000;2024-01-30T06:53:49;19.70;57.50
27016;DHT22;14557;0.000;0.000;2024-01-30T06:56:16;19.70;57.50
27016;DHT22;14557;0.000;0.000;2024-01-30T06:58:47;19.70;57.40
27016;DHT22;14557;0.000;0.000;2024-01-30T07:01:13;19.70;57.40
27016;DHT22;14557;0.000;0.000;2024-01-30T07:03:38;19.70;57.50
27016;DHT22;14557;0.000;0.000;2024-01-30T07:06:04;19.70;57.50
27016;DHT22;14557;0.000;0.000;2024-01-30T07:08:30;19.70;57.50
27016;DHT22;14557;0.000;0.000;2024-01-30T07:10:56;19.70;57.40
27016;DHT22;14557;0.000;0.000;2024-01-30T07:13:22;19.60;57.50
27016;DHT22;14557;0.000;0.000;2024-01-30T07:15:47;19.60;57.40
27016;DHT22;14557;0.000;0.000;2024-01-30T07:18:13;19.60;57.50
27016;DHT22;14557;0.000;0.000;2024-01-30T07:20:39;19.60;57.40
27016;DHT22;14557;0.000;0.000;2024-01-30T07:23:15;19.60;57.50
27016;DHT22;14557;0.000;0.000;2024-01-30T07:25:43;19.60;57.50
27016;DHT22;14557;0.000;0.000;2024-01-30T07:28:09;19.60;57.40
27016;DHT22;14557;0.000;0.000;2024-01-30T07:30:36;19.60;57.30
27016;DHT22;14557;0.000;0.000;2024-01-30T07:33:02;19.60;57.40
27016;DHT22;14557;0.000;0.000;2024-01-30T07:35:28;19.50;57.40
27016;DHT22;14557;0.000;0.000;2024-01-30T07:37:53;19.50;57.50
27016;DHT22;14557;0.000;0.000;2024-01-30T07:40:19;19.50;57.50
27016;DHT22;14557;0.000;0.000;2024-01-30T07:42:45;19.50;57.60
27016;DHT22;14557;0.000;0.000;2024-01-30T07:45:11;19.50;57.50
27016;DHT22;14557;0.000;0.000;2024-01-30T07:47:36;19.50;57.60
27016;DHT22;14557;0.000;0.000;2024-01-30T07:50:02;19.50;57.60
27016;DHT22;14557;0.000;0.000;2024-01-30T07:52:28;19.50;57.70
27016;DHT22;14557;0.000;0.000;2024-01-30T07:54:54;19.40;57.60
27016;DHT22;14557;0.000;0.000;2024-01-30T07:57:20;19.40;57.70
27016;DHT22;14557;0.000;0.000;2024-01-30T07:59:46;19.40;57.70
27016;DHT22;14557;0.000;0.000;2024-01-30T08:02:12;19.40;57.70
27016;DHT22;14557;0.000;0.000;2024-01-30T08:04:38;19.40;57.70
27016;DHT22;14557;0.000;0.000;2024-01-30T08:07:04;19.40;57.70
27016;DHT22;14557;0.000;0.000;2024-01-30T08:09:30;19.40;57.60
27016;DHT22;14557;0.000;0.000;2024-01-30T08:11:56;19.40;57.60
27016;DHT22;14557;0.000;0.000;2024-01-30T08:14:22;19.40;57.50
27016;DHT22;14557;0.000;0.000;2024-01-30T08:16:47;19.40;57.40
27016;DHT22;14557;0.000;0.000;2024-01-30T08:19:14;19.40;57.40
27016;DHT22;14557;0.000;0.000;2024-01-30T08:21:40;19.40;58.40
27016;DHT22;14557;0.000;0.000;2024-01-30T08:24:07;19.50;61.10
27016;DHT22;14557;0.000;0.000;2024-01-30T08:26:33;19.60;60.00
27016;DHT22;14557;0.000;0.000;2024-01-30T08:28:59;19.60;59.30
27016;DHT22;14557;0.000;0.000;2024-01-30T08:31:25;19.60;59.10
27016;DHT22;14557;0.000;0.000;2024-01-30T08:33:51;19.70;59.30
27016;DHT22;14557;0.000;0.000;2024-01-30T08:36:17;19.70;62.00
27016;DHT22;14557;0.000;0.000;2024-01-30T08:38:43;19.70;64.40
27016;DHT22;14557;0.000;0.000;2024-01-30T08:41:09;19.70;66.00
27016;DHT22;14557;0.000;0.000;2024-01-30T08:43:35;19.80;65.50
27016;DHT22;14557;0.000;0.000;2024-01-30T08:46:02;19.80;65.50
27016;DHT22;14557;0.000;0.000;2024-01-30T08:48:27;19.80;62.60
27016;DHT22;14557;0.000;0.000;2024-01-30T08:50:53;19.90;64.20
27016;DHT22;14557;0.000;0.000;2024-01-30T08:53:19;19.90;62.50
27016;DHT22;14557;0.000;0.000;2024-01-30T08:55:45;19.90;61.10
27016;DHT22;14557;0.000;0.000;2024-01-30T08:58:11;19.90;64.00
27016;DHT22;14557;0.000;0.000;2024-01-30T09:00:37;19.90;62.70
27016;DHT22;14557;0.000;0.000;2024-01-30T09:03:05;19.90;61.30
27016;DHT22;14557;0.000;0.000;2024-01-30T09:05:31;19.90;60.70
27016;DHT22;14557;0.000;0.000;2024-01-30T09:07:57;19.90;60.20
27016;DHT22;14557;0.000;0.000;2024-01-30T09:10:23;19.90;60.00
27016;DHT22;14557;0.000;0.000;2024-01-30T09:12:48;19.90;59.80
27016;DHT22;14557;0.000;0.000;2024-01-30T09:15:15;19.90;59.80
27016;DHT22;14557;0.000;0.000;2024-01-30T09:17:40;19.90;59.60
27016;DHT22;14557;0.000;0.000;2024-01-30T09:20:06;19.90;59.50
27016;DHT22;14557;0.000;0.000;2024-01-30T09:22:32;19.90;59.50
27016;DHT22;14557;0.000;0.000;2024-01-30T09:24:58;19.90;59.20
27016;DHT22;14557;0.000;0.000;2024-01-30T09:27:24;20.00;59.30
27016;DHT22;14557;0.000;0.000;2024-01-30T09:29:50;20.00;59.30
27016;DHT22;14557;0.000;0.000;2024-01-30T09:32:16;20.00;59.20
27016;DHT22;14557;0.000;0.000;2024-01-30T09:34:43;20.00;59.00
27016;DHT22;14557;0.000;0.000;2024-01-30T09:37:09;20.00;58.80
27016;DHT22;14557;0.000;0.000;2024-01-30T09:39:34;20.10;58.50
27016;DHT22;14557;0.000;0.000;2024-01-30T09:42:35;20.10;58.40
27016;DHT22;14557;0.000;0.000;2024-01-30T09:45:02;20.10;58.10
27016;DHT22;14557;0.000;0.000;2024-01-30T09:47:40;20.20;58.00
27016;DHT22;14557;0.000;0.000;2024-01-30T09:50:09;20.20;57.90
27016;DHT22;14557;0.000;0.000;2024-01-30T09:52:35;20.20;57.70
27016;DHT22;14557;0.000;0.000;2024-01-30T09:55:02;20.30;57.70
27016;DHT22;14557;0.000;0.000;2024-01-30T09:57:28;20.30;57.50
27016;DHT22;14557;0.000;0.000;2024-01-30T09:59:54;20.30;57.30
27016;DHT22;14557;0.000;0.000;2024-01-30T10:02:20;20.30;57.40
27016;DHT22;14557;0.000;0.000;2024-01-30T10:04:50;20.40;57.20
27016;DHT22;14557;0.000;0.000;2024-01-30T10:07:16;20.40;57.10
27016;DHT22;14557;0.000;0.000;2024-01-30T10:09:42;20.40;57.00
27016;DHT22;14557;0.000;0.000;2024-01-30T10:12:09;20.40;57.00
27016;DHT22;14557;0.000;0.000;2024-01-30T10:14:41;20.50;57.00
27016;DHT22;14557;0.000;0.000;2024-01-30T10:17:10;20.50;56.90
27016;DHT22;14557;0.000;0.000;2024-01-30T10:19:37;20.60;56.80
27016;DHT22;14557;0.000;0.000;2024-01-30T10:22:06;20.60;56.60
27016;DHT22;14557;0.000;0.000;2024-01-30T10:24:33;20.60;56.60
27016;DHT22;14557;0.000;0.000;2024-01-30T10:26:59;20.70;56.40
27016;DHT22;14557;0.000;0.000;2024-01-30T10:29:25;20.70;56.30
27016;DHT22;14557;0.000;0.000;2024-01-30T10:32:01;20.70;56.30
27016;DHT22;14557;0.000;0.000;2024-01-30T10:34:28;20.80;56.10
27016;DHT22;14557;0.000;0.000;2024-01-30T10:39:29;20.90;56.00
27016;DHT22;14557;0.000;0.000;2024-01-30T10:42:03;20.90;55.90
27016;DHT22;14557;0.000;0.000;2024-01-30T10:44:30;20.90;55.80
27016;DHT22;14557;0.000;0.000;2024-01-30T10:47:03;21.00;55.80
27016;DHT22;14557;0.000;0.000;2024-01-30T10:49:32;21.00;55.80
27016;DHT22;14557;0.000;0.000;2024-01-30T10:51:59;21.10;55.60
27016;DHT22;14557;0.000;0.000;2024-01-30T10:54:26;21.10;55.50
27016;DHT22;14557;0.000;0.000;2024-01-30T10:56:53;21.20;55.70
27016;DHT22;14557;0.000;0.000;2024-01-30T10:59:19;21.20;55.50
27016;DHT22;14557;0.000;0.000;2024-01-30T11:01:46;21.30;55.50
27016;DHT22;14557;0.000;0.000;2024-01-30T11:04:12;21.30;55.10
27016;DHT22;14557;0.000;0.000;2024-01-30T11:06:42;21.40;55.20
27016;DHT22;14557;0.000;0.000;2024-01-30T11:09:11;21.40;55.20
27016;DHT22;14557;0.000;0.000;2024-01-30T11:12:12;21.50;54.80
27016;DHT22;14557;0.000;0.000;2024-01-30T11:14:38;21.50;54.70
27016;DHT22;14557;0.000;0.000;2024-01-30T11:17:06;21.60;54.70
27016;DHT22;14557;0.000;0.000;2024-01-30T11:19:33;21.60;54.50
27016;DHT22;14557;0.000;0.000;2024-01-30T11:21:59;21.60;54.40
27016;DHT22;14557;0.000;0.000;2024-01-30T11:24:26;21.70;54.30
27016;DHT22;14557;0.000;0.000;2024-01-30T11:27:03;21.70;54.30
27016;DHT22;14557;0.000;0.000;2024-01-30T11:29:35;21.70;54.30
27016;DHT22;14557;0.000;0.000;2024-01-30T11:32:00;21.80;54.20
27016;DHT22;14557;0.000;0.000;2024-01-30T11:34:26;21.80;54.10
27016;DHT22;14557;0.000;0.000;2024-01-30T11:37:00;21.80;54.00
27016;DHT22;14557;0.000;0.000;2024-01-30T11:39:29;21.90;53.90
27016;DHT22;14557;0.000;0.000;2024-01-30T11:41:56;22.00;53.70
27016;DHT22;14557;0.000;0.000;2024-01-30T11:44:23;22.00;53.50
27016;DHT22;14557;0.000;0.000;2024-01-30T11:46:49;22.00;53.20
27016;DHT22;14557;0.000;0.000;2024-01-30T11:49:19;22.00;53.20
27016;DHT22;14557;0.000;0.000;2024-01-30T11:51:48;22.10;53.10
27016;DHT22;14557;0.000;0.000;2024-01-30T11:54:15;22.10;53.00
27016;DHT22;14557;0.000;0.000;2024-01-30T11:56:42;22.10;52.90
27016;DHT22;14557;0.000;0.000;2024-01-30T11:59:08;22.20;54.20
27016;DHT22;14557;0.000;0.000;2024-01-30T12:01:34;22.30;54.60
27016;DHT22;14557;0.000;0.000;2024-01-30T12:04:00;22.30;53.90
27016;DHT22;14557;0.000;0.000;2024-01-30T12:06:27;22.30;53.70
27016;DHT22;14557;0.000;0.000;2024-01-30T12:09:00;22.40;53.50
27016;DHT22;14557;0.000;0.000;2024-01-30T12:11:27;22.40;53.20
27016;DHT22;14557;0.000;0.000;2024-01-30T12:13:53;22.40;53.10
27016;DHT22;14557;0.000;0.000;2024-01-30T12:16:20;22.50;52.90
27016;DHT22;14557;0.000;0.000;2024-01-30T12:18:46;22.50;52.70
27016;DHT22;14557;0.000;0.000;2024-01-30T12:21:11;22.50;53.10
27016;DHT22;14557;0.000;0.000;2024-01-30T12:23:37;22.50;53.30
27016;DHT22;14557;0.000;0.000;2024-01-30T12:26:04;22.60;53.30
27016;DHT22;14557;0.000;0.000;2024-01-30T12:28:33;22.60;53.20
27016;DHT22;14557;0.000;0.000;2024-01-30T12:31:02;22.70;53.10
27016;DHT22;14557;0.000;0.000;2024-01-30T12:33:29;22.80;53.10
27016;DHT22;14557;0.000;0.000;2024-01-30T12:35:55;22.80;53.20
27016;DHT22;14557;0.000;0.000;2024-01-30T12:38:21;22.90;53.20
27016;DHT22;14557;0.000;0.000;2024-01-30T12:40:49;22.90;53.10
27016;DHT22;14557;0.000;0.000;2024-01-30T12:43:14;23.00;53.10
27016;DHT22;14557;0.000;0.000;2024-01-30T12:45:41;23.00;53.00
27016;DHT22;14557;0.000;0.000;2024-01-30T12:48:08;23.10;53.70
27016;DHT22;14557;0.000;0.000;2024-01-30T12:50:34;23.10;56.50
27016;DHT22;14557;0.000;0.000;2024-01-30T12:53:00;23.10;54.80
27016;DHT22;14557;0.000;0.000;2024-01-30T12:55:26;23.20;55.20
27016;DHT22;14557;0.000;0.000;2024-01-30T12:57:54;23.10;52.80
27016;DHT22;14557;0.000;0.000;2024-01-30T13:00:20;23.10;51.90
27016;DHT22;14557;0.000;0.000;2024-01-30T13:02:47;23.10;52.20
27016;DHT22;14557;0.000;0.000;2024-01-30T13:05:13;23.10;52.10
27016;DHT22;14557;0.000;0.000;2024-01-30T13:07:39;23.20;51.80
27016;DHT22;14557;0.000;0.000;2024-01-30T13:10:05;23.20;51.80
27016;DHT22;14557;0.000;0.000;2024-01-30T13:12:32;23.20;51.60
27016;DHT22;14557;0.000;0.000;2024-01-30T13:14:59;23.20;51.50
27016;DHT22;14557;0.000;0.000;2024-01-30T13:17:30;23.10;51.40
27016;DHT22;14557;0.000;0.000;2024-01-30T13:19:55;23.20;51.40
27016;DHT22;14557;0.000;0.000;2024-01-30T13:22:21;23.20;51.40
27016;DHT22;14557;0.000;0.000;2024-01-30T13:24:47;23.10;51.30
27016;DHT22;14557;0.000;0.000;2024-01-30T13:27:13;23.20;51.10
27016;DHT22;14557;0.000;0.000;2024-01-30T13:29:39;23.20;51.00
27016;DHT22;14557;0.000;0.000;2024-01-30T13:32:05;23.10;51.00
27016;DHT22;14557;0.000;0.000;2024-01-30T13:34:31;23.20;51.00
27016;DHT22;14557;0.000;0.000;2024-01-30T13:36:57;23.10;50.90
27016;DHT22;14557;0.000;0.000;2024-01-30T13:39:22;23.10;50.90
27016;DHT22;14557;0.000;0.000;2024-01-30T13:41:49;23.10;50.80
27016;DHT22;14557;0.000;0.000;2024-01-30T13:44:15;23.10;50.80
27016;DHT22;14557;0.000;0.000;2024-01-30T13:46:42;23.10;50.80
27016;DHT22;14557;0.000;0.000;2024-01-30T13:49:08;23.10;50.80
27016;DHT22;14557;0.000;0.000;2024-01-30T13:51:34;23.10;50.70
27016;DHT22;14557;0.000;0.000;2024-01-30T13:53:59;23.10;50.70
27016;DHT22;14557;0.000;0.000;2024-01-30T13:56:25;23.10;50.70
27016;DHT22;14557;0.000;0.000;2024-01-30T13:58:52;23.10;50.70
27016;DHT22;14557;0.000;0.000;2024-01-30T14:01:18;23.10;50.70
27016;DHT22;14557;0.000;0.000;2024-01-30T14:03:44;23.00;50.70
27016;DHT22;14557;0.000;0.000;2024-01-30T14:06:10;23.00;50.60
27016;DHT22;14557;0.000;0.000;2024-01-30T14:08:36;22.90;50.60
27016;DHT22;14557;0.000;0.000;2024-01-30T14:11:02;22.90;50.90
27016;DHT22;14557;0.000;0.000;2024-01-30T14:13:29;22.90;51.00
27016;DHT22;14557;0.000;0.000;2024-01-30T14:15:56;22.80;51.10
27016;DHT22;14557;0.000;0.000;2024-01-30T14:18:22;22.80;51.20
27016;DHT22;14557;0.000;0.000;2024-01-30T14:20:48;22.80;51.30
27016;DHT22;14557;0.000;0.000;2024-01-30T14:23:13;22.80;51.30
27016;DHT22;14557;0.000;0.000;2024-01-30T14:25:39;22.70;51.40
27016;DHT22;14557;0.000;0.000;2024-01-30T14:28:05;22.70;51.40
27016;DHT22;14557;0.000;0.000;2024-01-30T14:30:31;22.70;51.40
27016;DHT22;14557;0.000;0.000;2024-01-30T14:32:57;22.70;51.50
27016;DHT22;14557;0.000;0.000;2024-01-30T14:35:22;22.60;51.50
27016;DHT22;14557;0.000;0.000;2024-01-30T14:37:48;22.70;52.00
27016;DHT22;14557;0.000;0.000;2024-01-30T14:40:14;22.70;51.70
27016;DHT22;14557;0.000;0.000;2024-01-30T14:42:40;22.70;51.60
27016;DHT22;14557;0.000;0.000;2024-01-30T14:45:06;22.60;52.00
27016;DHT22;14557;0.000;0.000;2024-01-30T14:47:33;22.60;52.70
27016;DHT22;14557;0.000;0.000;2024-01-30T14:49:59;22.60;52.50
27016;DHT22;14557;0.000;0.000;2024-01-30T14:52:24;22.60;52.60
27016;DHT22;14557;0.000;0.000;2024-01-30T14:54:50;22.50;52.40
27016;DHT22;14557;0.000;0.000;2024-01-30T14:57:16;22.50;52.40
27016;DHT22;14557;0.000;0.000;2024-01-30T14:59:42;22.50;52.40
27016;DHT22;14557;0.000;0.000;2024-01-30T15:02:08;22.50;52.30
27016;DHT22;14557;0.000;0.000;2024-01-30T15:04:34;22.40;52.20
27016;DHT22;14557;0.000;0.000;2024-01-30T15:07:00;22.40;52.20
27016;DHT22;14557;0.000;0.000;2024-01-30T15:09:26;22.40;52.20
27016;DHT22;14557;0.000;0.000;2024-01-30T15:11:52;22.40;52.30
27016;DHT22;14557;0.000;0.000;2024-01-30T15:14:18;22.40;52.30
27016;DHT22;14557;0.000;0.000;2024-01-30T15:16:44;22.30;52.30
27016;DHT22;14557;0.000;0.000;2024-01-30T15:19:10;22.30;52.30
27016;DHT22;14557;0.000;0.000;2024-01-30T15:21:35;22.30;52.30
27016;DHT22;14557;0.000;0.000;2024-01-30T15:24:02;22.30;52.30
27016;DHT22;14557;0.000;0.000;2024-01-30T15:26:29;22.30;52.30
27016;DHT22;14557;0.000;0.000;2024-01-30T15:28:54;22.30;52.20
27016;DHT22;14557;0.000;0.000;2024-01-30T15:31:20;22.20;52.20
27016;DHT22;14557;0.000;0.000;2024-01-30T15:33:47;22.20;52.20
27016;DHT22;14557;0.000;0.000;2024-01-30T15:36:13;22.20;52.40
27016;DHT22;14557;0.000;0.000;2024-01-30T15:38:39;22.20;52.40
27016;DHT22;14557;0.000;0.000;2024-01-30T15:41:06;22.20;52.50
27016;DHT22;14557;0.000;0.000;2024-01-30T15:43:32;22.10;52.60